Home > Products > Valid Products > TAF

000
FTUS41 KCLE 292249 AAB
TAFCLE
TAF AMD
KCLE 292249Z 2923/3024 14008KT P6SM -SHRA BKN050 OVC100
     FM300200 12006KT P6SM OVC025
     FM300400 14006KT 5SM BR OVC015
     FM300900 19006KT 5SM BR OVC007
     FM301500 21008KT P6SM OVC012
     FM301800 23008KT P6SM OVC025=



000
FTUS41 KCLE 292245 AAA
TAFCAK
TAF AMD
KCAK 292245Z 2923/3018 14008KT 5SM BR VCSH OVC025
     FM300300 16006KT 3SM BR VCSH OVC007
     FM301700 20008KT 4SM BR OVC015=



000
FTUS41 KCLE 292243 AAA
TAFMFD
TAF AMD
KMFD 292243Z 2923/3018 11008KT 6SM BR VCSH BKN025 OVC100
     FM300000 13007KT 4SM BR SCT007 OVC015
     FM300500 18005KT 3SM BR OVC007
     FM301500 23007KT 6SM BR OVC012=



000
FTUS41 KCLE 292240 AAA
TAFFDY
TAF AMD
KFDY 292240Z 2923/3018 10007KT P6SM BKN015 OVC050
     FM300600 VRB04KT 5SM BR OVC007
     FM301500 24007KT P6SM VCSH OVC015=



000
FTUS41 KCLE 292239 AAA
TAFTOL
TAF AMD
KTOL 292239Z 2923/3018 11007KT P6SM BKN025 OVC100
     FM300300 VRB05KT 5SM BR OVC015
     FM300700 VRB03KT 4SM BR OVC007
     FM301500 25005KT P6SM VCSH OVC015=



000
FTUS41 KCLE 291728
TAFCAK
TAF
KCAK 291728Z 2918/3018 18009KT P6SM -SHRA OVC120
     FM292200 14006KT 5SM BR VCSH OVC025
     FM300300 14011KT 4SM BR VCSH OVC007
     FM301700 20008KT 4SM BR OVC015=



000
FTUS41 KCLE 291728
TAFCAK
TAF
KCAK 291728Z 2918/3018 18009KT P6SM -SHRA OVC120
     FM292200 14006KT 5SM BR VCSH OVC025
     FM300300 14011KT 4SM BR VCSH OVC007
     FM301700 20008KT 4SM BR OVC015=



000
FTUS41 KCLE 291728
TAFFDY
TAF
KFDY 291728Z 2918/3018 15010KT 6SM -SHRA BR OVC100
      TEMPO 2918/2920 4SM -RA BR OVC050
     FM292000 10010KT 6SM BR VCSH OVC050
     FM300600 22004KT 5SM BR OVC007
     FM301500 24006KT P6SM VCSH OVC015=



000
FTUS41 KCLE 291728
TAFMFD
TAF
KMFD 291728Z 2918/3018 18008KT P6SM -RA OVC100
     FM292000 13011KT 6SM -SHRA BR OVC050
     FM300000 18010KT 4SM BR VCSH OVC025
     FM301500 23007KT 4SM BR OVC007=



000
FTUS41 KCLE 291728
TAFCLE
TAF
KCLE 291728Z 2918/3024 17009KT P6SM -SHRA OVC100
     FM300000 10009KT 5SM -SHRA BR OVC035
     FM300400 13011KT 4SM BR VCSH OVC015
     FM300900 19006KT 6SM BR OVC007
     FM301500 23007KT P6SM OVC007
     FM301800 23007KT P6SM OVC025=



000
FTUS41 KCLE 291728
TAFTOL
TAF
KTOL 291728Z 2918/3018 10010KT P6SM VCSH BKN100
     FM292100 10010KT 6SM -SHRA BR OVC050
     FM300300 31005KT 5SM BR OVC007
     FM300700 VRB03KT 4SM BR OVC007
     FM301500 25004KT P6SM VCSH OVC015=



000
FTUS41 KCLE 291728
TAFFDY
TAF
KFDY 291728Z 2918/3018 15010KT 6SM -SHRA BR OVC100
      TEMPO 2918/2920 4SM -RA BR OVC050
     FM292000 10010KT 6SM BR VCSH OVC050
     FM300600 22004KT 5SM BR OVC007
     FM301500 24006KT P6SM VCSH OVC015=



000
FTUS41 KCLE 291728
TAFTOL
TAF
KTOL 291728Z 2918/3018 10010KT P6SM VCSH BKN100
     FM292100 10010KT 6SM -SHRA BR OVC050
     FM300300 31005KT 5SM BR OVC007
     FM300700 VRB03KT 4SM BR OVC007
     FM301500 25004KT P6SM VCSH OVC015=



000
FTUS41 KCLE 291728
TAFYNG
TAF
KYNG 291728Z 2918/3018 21006KT P6SM BKN120 OVC200
     FM292200 18008KT P6SM -SHRA OVC080
     FM300000 11005KT 6SM SHRA OVC035
     FM300600 15009KT 5SM BR OVC007
     FM300900 18006KT 4SM BR OVC007=



000
FTUS41 KCLE 291728
TAFCLE
TAF
KCLE 291728Z 2918/3024 17009KT P6SM -SHRA OVC100
     FM300000 10009KT 5SM -SHRA BR OVC035
     FM300400 13011KT 4SM BR VCSH OVC015
     FM300900 19006KT 6SM BR OVC007
     FM301500 23007KT P6SM OVC007
     FM301800 23007KT P6SM OVC025=



000
FTUS41 KCLE 291728
TAFMFD
TAF
KMFD 291728Z 2918/3018 18008KT P6SM -RA OVC100
     FM292000 13011KT 6SM -SHRA BR OVC050
     FM300000 18010KT 4SM BR VCSH OVC025
     FM301500 23007KT 4SM BR OVC007=



000
FTUS41 KCLE 291728
TAFERI
TAF
KERI 291728Z 2918/3018 27007KT P6SM BKN100
     FM300000 16005KT P6SM -SHRA OVC100
     FM300300 13005KT 6SM -SHRA OVC050
     FM300500 13005KT 6SM -SHRA BR OVC025
     FM300900 16008KT P6SM OVC025
      TEMPO 3012/3015 P6SM OVC007
     FM301500 22010KT P6SM OVC015=



000
FTUS41 KCLE 291510 AAA
TAFFDY
TAF AMD
KFDY 291510Z 2915/3012 14004KT P6SM -SHRA OVC100
     FM291800 10010KT 6SM -SHRA BR OVC025
     FM292100 10010KT 5SM -SHRA BR OVC015
     FM300600 22004KT 2SM BR OVC004=



000
FTUS41 KCLE 291128
TAFMFD
TAF
KMFD 291128Z 2912/3012 17004KT P6SM OVC250
     FM291500 18011KT P6SM OVC250
     FM291800 18012KT P6SM -SHRA OVC050
     FM292000 13011KT 4SM RA BR OVC015
     FM300000 18010KT 4SM BR OVC007
     FM300600 20006KT 2SM BR OVC004=



000
FTUS41 KCLE 291128
TAFCLE
TAF
KCLE 291128Z 2912/3018 19005KT P6SM SCT180 BKN250
     FM291800 17009KT P6SM -SHRA OVC100
     FM292000 17008KT 6SM -SHRA OVC025
     FM300000 10011KT 4SM SHRA BR OVC015
     FM300400 13011KT 4SM -SHRA BR OVC007
     FM300900 22008KT 2SM BR OVC004
     FM301500 23007KT P6SM OVC007=



000
FTUS41 KCLE 291128
TAFFDY
TAF
KFDY 291128Z 2912/3012 14004KT P6SM -SHRA OVC100
     FM291500 10012KT 4SM -SHRA OVC050
     FM291800 10010KT 3SM SHRA BR OVC025
     FM292100 10010KT 4SM SHRA BR OVC015
     FM300600 22004KT 2SM BR OVC004=



000
FTUS41 KCLE 291128
TAFERI
TAF
KERI 291128Z 2912/3012 09003KT P6SM SCT050 BKN080 OVC100
      TEMPO 2912/2913 -SHRA
     FM291500 27007KT P6SM OVC250
     FM300000 16005KT P6SM -SHRA OVC100
     FM300300 13005KT 6SM -SHRA OVC050
     FM300500 13005KT 6SM -SHRA BR OVC025
     FM300900 16008KT P6SM OVC025=



000
FTUS41 KCLE 291128
TAFYNG
TAF
KYNG 291128Z 2912/3012 00000KT P6SM OVC250
     FM292100 18008KT P6SM -SHRA OVC100
     FM300000 11005KT P6SM -SHRA OVC050
     FM300600 15009KT 4SM BR OVC050
     FM300900 18007KT 4SM BR OVC007=



000
FTUS41 KCLE 291128
TAFTOL
TAF
KTOL 291128Z 2912/3012 VRB03KT P6SM OVC250
      TEMPO 2912/2915 -SHRA
     FM291500 10012KT 6SM -SHRA OVC050
     FM291800 10010KT 5SM SHRA BR OVC025
     FM292100 10010KT 4SM SHRA BR OVC007
     FM300300 31005KT 2SM BR OVC004
     FM300900 VRB03KT 1/2SM FG OVC004=



000
FTUS41 KCLE 291128
TAFCAK
TAF
KCAK 291128Z 2912/3012 19004KT P6SM OVC250
     FM291500 18009KT P6SM OVC250
     FM291900 17008KT P6SM -SHRA OVC100
     FM292200 16006KT 4SM SHRA BR OVC025
     FM300300 14011KT 5SM -SHRA BR OVC007
     FM300600 18007KT 4SM BR OVC025=



000
FTUS41 KCLE 290824 AAA
TAFERI
TAF AMD
KERI 290824Z 2908/3006 28008KT P6SM OVC090
      TEMPO 2909/2913 -SHRA
     FM291500 27007KT P6SM OVC250
     FM300000 16005KT P6SM -SHRA OVC100
     FM300300 13005KT 5SM -SHRA OVC050
     FM300500 13005KT 2SM -SHRA BR OVC025=



000
FTUS41 KCLE 290540
TAFTOL
TAF
KTOL 290540Z 2906/3006 VRB02KT P6SM OVC250
     FM291200 14005KT P6SM OVC100
     FM291500 10012KT P6SM -SHRA OVC050
     FM291800 10010KT 5SM -SHRA BR OVC025
     FM292100 10010KT 4SM -SHRA BR OVC007
     FM300300 31005KT 2SM BR OVC001=



000
FTUS41 KCLE 290540
TAFYNG
TAF
KYNG 290540Z 2906/3006 24003KT P6SM OVC250
     FM292100 18008KT P6SM -SHRA OVC100
     FM300000 11005KT P6SM -SHRA OVC050=



000
FTUS41 KCLE 290540
TAFCAK
TAF
KCAK 290540Z 2906/3006 VRB03KT P6SM OVC250
     FM291500 18009KT P6SM OVC250
     FM291900 17008KT P6SM -SHRA OVC100
     FM292200 16006KT 4SM -SHRA BR OVC025
     FM300300 14011KT 5SM -SHRA BR OVC007=



000
FTUS41 KCLE 290540
TAFFDY
TAF
KFDY 290540Z 2906/3006 15004KT P6SM OVC250
     FM291200 14005KT P6SM OVC100
     FM291500 10012KT P6SM -SHRA OVC050
     FM291800 10010KT 5SM -SHRA BR OVC025
     FM292100 10010KT 4SM -SHRA BR OVC007
     FM300300 31005KT 2SM BR OVC001=



000
FTUS41 KCLE 290540
TAFCLE
TAF
KCLE 290540Z 2906/3012 21006KT P6SM OVC250
     FM291800 17009KT P6SM -SHRA OVC100
     FM292000 17008KT P6SM -SHRA OVC025
     FM300000 10011KT 4SM -SHRA BR OVC015
     FM300400 13011KT 4SM -SHRA BR OVC007
     FM300900 22008KT P6SM OVC004=



000
FTUS41 KCLE 290540
TAFERI
TAF
KERI 290540Z 2906/3006 28008KT P6SM OVC090
     FM291500 27007KT P6SM OVC250
     FM300000 16005KT P6SM -SHRA OVC100
     FM300300 13005KT 5SM -SHRA OVC050
     FM300500 13005KT 2SM -SHRA BR OVC025=



000
FTUS41 KCLE 290540
TAFMFD
TAF
KMFD 290540Z 2906/3006 VRB03KT P6SM BKN250
     FM291500 18011KT P6SM OVC250
     FM291800 18012KT P6SM -SHRA OVC050
     FM292000 13011KT 4SM -RA BR OVC015
     FM300000 14010KT 1 1/2SM BR OVC007
     FM300400 18008KT 2SM BR OVC004=



000
FTUS41 KCLE 290339 AAB
TAFERI
TAF AMD
KERI 290339Z 2904/2924 29007KT P6SM BKN020 BKN045
     FM290600 23005KT P6SM SCT045
     FM291600 23005KT P6SM SCT120 BKN250
     FM292000 06006KT P6SM SCT045 BKN120=



000
FTUS41 KCLE 290339 AAB
TAFERI
TAF AMD
KERI 290339Z 2904/2924 29007KT P6SM BKN020 BKN045
     FM290600 23005KT P6SM SCT045
     FM291600 23005KT P6SM SCT120 BKN250
     FM292000 06006KT P6SM SCT045 BKN120=



000
FTUS41 KCLE 290259 AAB
TAFCLE
TAF AMD
KCLE 290259Z 2903/3006 18004KT P6SM SCT070 BKN250
     FM291000 18006KT P6SM SCT120 BKN250
     FM291500 18010KT P6SM SCT045 BKN120
     FM291800 15010KT P6SM SCT035 BKN045
     FM292100 10012G18KT P6SM -SHRA OVC035
     FM300200 12008KT 5SM SHRA BR OVC012=



000
FTUS41 KCLE 290241 AAA
TAFERI
TAF AMD
KERI 290241Z 2903/2924 28007KT P6SM BKN045
     FM290600 23005KT P6SM SCT045
     FM291600 23005KT P6SM SCT120 BKN250
     FM292000 06006KT P6SM SCT045 BKN120=



000
FTUS41 KCLE 282320
TAFMFD
TAF
KMFD 282320Z 2900/2924 31008KT P6SM SCT250
     FM290200 VRB02KT P6SM SCT120 BKN250
     FM291200 16008KT P6SM SCT045 BKN120
     FM291600 14010KT 6SM -SHRA BR OVC045
     FM292000 14012KT 5SM SHRA BR VCTS OVC025CB=



000
FTUS41 KCLE 282320
TAFERI
TAF
KERI 282320Z 2900/2924 29012G18KT P6SM BKN015 OVC035
      TEMPO 2902/2904 SCT015 BKN035
     FM290400 28007KT P6SM BKN045
     FM290800 23005KT P6SM SCT045
     FM291600 23005KT P6SM SCT120 BKN250
     FM292000 06006KT P6SM SCT045 BKN120=



000
FTUS41 KCLE 282320
TAFCLE
TAF
KCLE 282320Z 2900/3006 33008KT P6SM SCT250
     FM290200 VRB03KT P6SM SCT250
     FM291000 18006KT P6SM SCT120 BKN250
     FM291500 18010KT P6SM SCT045 BKN120
     FM291800 15010KT P6SM SCT035 BKN045
     FM292100 10012G18KT P6SM -SHRA OVC035
     FM300200 12008KT 5SM SHRA BR OVC012=



000
FTUS41 KCLE 282320
TAFTOL
TAF
KTOL 282320Z 2900/2924 32006KT P6SM SCT060 BKN200
     FM290400 VRB02KT P6SM SCT120 BKN250
     FM291000 15004KT P6SM SCT045 OVC120
     FM291200 15005KT P6SM SCT025 OVC045
      TEMPO 2912/2915 5SM -SHRA BR OVC025
     FM291500 10012KT 6SM -SHRA BR OVC025
     FM291800 10010KT 5SM SHRA BR OVC012=



000
FTUS41 KCLE 282320
TAFYNG
TAF
KYNG 282320Z 2900/2924 29010G18KT P6SM SCT035 BKN050
     FM290200 22003KT P6SM SCT250
     FM290900 VRB03KT 5SM BR SCT120 BKN250
     FM291400 18005KT P6SM SCT050 BKN120
     FM292000 20008KT P6SM VCSH BKN050=



000
FTUS41 KCLE 282320
TAFCLE
TAF
KCLE 282320Z 2900/3006 33008KT P6SM SCT250
     FM290200 VRB03KT P6SM SCT250
     FM291000 18006KT P6SM SCT120 BKN250
     FM291500 18010KT P6SM SCT045 BKN120
     FM291800 15010KT P6SM SCT035 BKN045
     FM292100 10012G18KT P6SM -SHRA OVC035
     FM300200 12008KT 5SM SHRA BR OVC012=



000
FTUS41 KCLE 282320
TAFCAK
TAF
KCAK 282320Z 2900/2924 32010KT P6SM SCT250
     FM290200 VRB03KT P6SM SCT250
      TEMPO 2908/2910 5SM BR
     FM291000 20004KT 5SM BR SCT120 BKN250
     FM291400 18010KT P6SM SCT045 BKN120
     FM291900 16010KT P6SM SCT035 BKN045
     FM292200 15010KT P6SM -SHRA OVC035=



000
FTUS41 KCLE 282320
TAFTOL
TAF
KTOL 282320Z 2900/2924 32006KT P6SM SCT060 BKN200
     FM290400 VRB02KT P6SM SCT120 BKN250
     FM291000 15004KT P6SM SCT045 OVC120
     FM291200 15005KT P6SM SCT025 OVC045
      TEMPO 2912/2915 5SM -SHRA BR OVC025
     FM291500 10012KT 6SM -SHRA BR OVC025
     FM291800 10010KT 5SM SHRA BR OVC012=



000
FTUS41 KCLE 282320
TAFCAK
TAF
KCAK 282320Z 2900/2924 32010KT P6SM SCT250
     FM290200 VRB03KT P6SM SCT250
      TEMPO 2908/2910 5SM BR
     FM291000 20004KT 5SM BR SCT120 BKN250
     FM291400 18010KT P6SM SCT045 BKN120
     FM291900 16010KT P6SM SCT035 BKN045
     FM292200 15010KT P6SM -SHRA OVC035=



000
FTUS41 KCLE 282320
TAFFDY
TAF
KFDY 282320Z 2900/2924 30006KT P6SM SCT060 BKN200
     FM290400 VRB02KT P6SM SCT120 BKN250
     FM290800 16004KT P6SM SCT045 OVC120
     FM291000 16009KT P6SM SCT035 OVC050
      TEMPO 2910/2914 5SM -SHRA BR OVC035
     FM291400 14010KT 6SM -SHRA BR OVC035
     FM291600 12010KT 5SM SHRA BR OVC025=



000
FTUS41 KCLE 282320
TAFYNG
TAF
KYNG 282320Z 2900/2924 29010G18KT P6SM SCT035 BKN050
     FM290200 22003KT P6SM SCT250
     FM290900 VRB03KT 5SM BR SCT120 BKN250
     FM291400 18005KT P6SM SCT050 BKN120
     FM292000 20008KT P6SM VCSH BKN050=



000
FTUS41 KCLE 282320
TAFFDY
TAF
KFDY 282320Z 2900/2924 30006KT P6SM SCT060 BKN200
     FM290400 VRB02KT P6SM SCT120 BKN250
     FM290800 16004KT P6SM SCT045 OVC120
     FM291000 16009KT P6SM SCT035 OVC050
      TEMPO 2910/2914 5SM -SHRA BR OVC035
     FM291400 14010KT 6SM -SHRA BR OVC035
     FM291600 12010KT 5SM SHRA BR OVC025=



000
FTUS41 KCLE 282320
TAFMFD
TAF
KMFD 282320Z 2900/2924 31008KT P6SM SCT250
     FM290200 VRB02KT P6SM SCT120 BKN250
     FM291200 16008KT P6SM SCT045 BKN120
     FM291600 14010KT 6SM -SHRA BR OVC045
     FM292000 14012KT 5SM SHRA BR VCTS OVC025CB=



000
FTUS41 KCLE 282320
TAFERI
TAF
KERI 282320Z 2900/2924 29012G18KT P6SM BKN015 OVC035
      TEMPO 2902/2904 SCT015 BKN035
     FM290400 28007KT P6SM BKN045
     FM290800 23005KT P6SM SCT045
     FM291600 23005KT P6SM SCT120 BKN250
     FM292000 06006KT P6SM SCT045 BKN120=



000
FTUS41 KCLE 282224 AAB
TAFERI
TAF AMD
KERI 282224Z 2822/2918 34011G18KT P6SM SCT015 BKN035
     FM290000 29011KT P6SM BKN050
     FM290900 24005KT P6SM SCT030 OVC050=



000
FTUS41 KCLE 282224 AAB
TAFERI
TAF AMD
KERI 282224Z 2822/2918 34011G18KT P6SM SCT015 BKN035
     FM290000 29011KT P6SM BKN050
     FM290900 24005KT P6SM SCT030 OVC050=



000
FTUS41 KCLE 282151 AAB
TAFYNG
TAF AMD
KYNG 282151Z 2822/2918 27010G18KT P6SM VCSH SCT012 OVC028
     FM282300 27008KT P6SM SCT012 BKN045
     FM290100 23004KT P6SM SCT020
      TEMPO 2901/2903 BKN020
     FM290800 VRB03KT 5SM BR FEW250
     FM291500 17007KT P6SM SCT120 BKN200=



000
FTUS41 KCLE 282147 AAA
TAFCAK
TAF AMD
KCAK 282147Z 2822/2918 32012G20KT P6SM BKN045
     FM290000 33006KT P6SM SCT250
     FM291500 16010KT P6SM VCSH BKN040 OVC080=



000
FTUS41 KCLE 282025 AAA
TAFTOL
TAF AMD
KTOL 282025Z 2820/2918 32008KT P6SM SCT050
     FM282100 30008KT P6SM SKC
     FM290000 VRB03KT P6SM FEW250
     FM291000 14008KT P6SM SCT080 OVC120
     FM291500 11010KT P6SM VCSH BKN040 OVC080=



000
FTUS41 KCLE 282024 AAA
TAFYNG
TAF AMD
KYNG 282024Z 2820/2918 31012G18KT P6SM VCSH SCT012 OVC028
      TEMPO 2820/2823 BKN012
     FM282300 32008KT P6SM SCT012 OVC045
     FM290100 23004KT P6SM SCT020
      TEMPO 2901/2903 BKN020
     FM290800 VRB03KT 5SM BR FEW250
     FM291500 17007KT P6SM SCT120 BKN200=



000
FTUS41 KCLE 282024 AAA
TAFMFD
TAF AMD
KMFD 282024Z 2820/2918 34012G20KT P6SM SCT025 BKN050
     FM282200 31008KT P6SM SCT050
     FM290300 VRB04KT P6SM SKC
     FM290900 15008KT P6SM SCT080 OVC120
     FM291500 12010KT 6SM -SHRA VCTS BKN040CB OVC080=



000
FTUS41 KCLE 281845 AAA
TAFERI
TAF AMD
KERI 281845Z 2819/2918 34011KT 5SM BR VCSH SCT008 OVC015
     FM290000 29011KT P6SM VCSH BKN015
     FM290900 24005KT P6SM SCT030 OVC040=



000
FTUS41 KCLE 281737
TAFCLE
TAF
KCLE 281737Z 2818/2924 32015G25KT P6SM SCT015 BKN025 OVC035
     FM281900 32012G20KT P6SM SCT025 BKN035
     FM282300 30006KT P6SM SCT035
     FM290600 VRB03KT P6SM SCT250
     FM291100 17010KT P6SM BKN120 BKN200
     FM291800 12010KT P6SM VCSH BKN040 OVC080 PROB30 2920/2924 5SM
      -TSRA OVC040CB=



000
FTUS41 KCLE 281737
TAFCAK
TAF
KCAK 281737Z 2818/2918 30014KT P6SM VCSH BKN015 OVC035
      TEMPO 2820/2822 SCT015 OVC035
     FM282200 32010KT P6SM BKN035
     FM290300 VRB04KT P6SM SCT120 BKN250
     FM291500 16010KT P6SM VCSH BKN040 OVC080=



000
FTUS41 KCLE 281737
TAFMFD
TAF
KMFD 281737Z 2818/2918 31015G25KT P6SM SCT015 BKN040
     FM282200 31008KT P6SM SCT050
     FM290300 VRB04KT P6SM SKC
     FM290900 15008KT P6SM SCT080 OVC120
     FM291500 12010KT 6SM -SHRA VCTS BKN040CB OVC080=



000
FTUS41 KCLE 281737
TAFERI
TAF
KERI 281737Z 2818/2918 34012G20KT 3SM -RA BR BKN008 OVC015
     FM290000 29011KT P6SM VCSH BKN008 OVC015
     FM290900 24005KT P6SM SCT030 OVC040=



000
FTUS41 KCLE 281737
TAFYNG
TAF
KYNG 281737Z 2818/2918 31012G20KT P6SM VCSH BKN007 OVC015
     FM282300 32011KT P6SM VCSH SCT007 OVC015
     FM290100 23004KT P6SM SCT020
      TEMPO 2901/2903 BKN020
     FM290800 VRB03KT 5SM BR FEW250
     FM291500 17007KT P6SM SCT120 BKN200=



000
FTUS41 KCLE 281737
TAFTOL
TAF
KTOL 281737Z 2818/2918 32012G18KT P6SM FEW035
     FM282100 30008KT P6SM SKC
     FM290000 VRB03KT P6SM FEW250
     FM291000 14008KT P6SM SCT080 OVC120
     FM291500 11010KT P6SM VCSH BKN040 OVC080=



000
FTUS41 KCLE 281737
TAFFDY
TAF
KFDY 281737Z 2818/2918 32012G18KT P6SM FEW035
     FM282100 30008KT P6SM SKC
     FM290200 VRB05KT P6SM SCT250
     FM290900 15008KT P6SM SCT080 OVC120
     FM291400 12010KT 6SM -SHRA VCTS BKN040CB OVC080=



000
FTUS41 KCLE 281620 AAC
TAFCLE
TAF AMD
KCLE 281620Z 2816/2918 32015G25KT P6SM VCSH SCT015 OVC025
     FM282200 32012G18KT P6SM SCT025 OVC035
     FM290300 30006KT P6SM SCT150 SCT250
     FM290600 VRB03KT P6SM FEW250=



000
FTUS41 KCLE 281539 AAB
TAFMFD
TAF AMD
KMFD 281539Z 2816/2912 31015G25KT P6SM BKN015 OVC040
     FM281800 31015G25KT P6SM SCT015 OVC040
     FM282000 31012KT P6SM SCT050
     FM290300 VRB04KT P6SM SKC=



000
FTUS41 KCLE 281501 AAB
TAFERI
TAF AMD
KERI 281501Z 2815/2912 35012KT P6SM VCSH OVC005
     FM281700 33012G20KT P6SM VCSH BKN008 OVC015
     FM290000 29007KT P6SM VCSH OVC015
     FM290900 24005KT P6SM SCT250=



000
FTUS41 KCLE 281459 AAA
TAFMFD
TAF AMD
KMFD 281459Z 2815/2912 31015G25KT P6SM SCT030 OVC040
     FM282000 31012KT P6SM SCT050
     FM290300 VRB04KT P6SM SKC=



000
FTUS41 KCLE 281419 AAA
TAFYNG
TAF AMD
KYNG 281419Z 2814/2912 31012KT 6SM -RA BR OVC005
      TEMPO 2815/2816 OVC008
     FM281600 31011G16KT 5SM -RA BR OVC010
     FM282200 32012KT P6SM VCSH OVC012
     FM290000 28005KT P6SM OVC015
     FM290300 26004KT P6SM SCT100 BKN250=



000
FTUS41 KCLE 281419 AAA
TAFYNG
TAF AMD
KYNG 281419Z 2814/2912 31012KT 6SM -RA BR OVC005
      TEMPO 2815/2816 OVC008
     FM281600 31011G16KT 5SM -RA BR OVC010
     FM282200 32012KT P6SM VCSH OVC012
     FM290000 28005KT P6SM OVC015
     FM290300 26004KT P6SM SCT100 BKN250=



000
FTUS41 KCLE 281417 AAA
TAFCAK
TAF AMD
KCAK 281417Z 2814/2912 31012KT 3SM -RA BR BKN006 OVC015
     FM281600 30014G22KT 6SM BR VCSH OVC015
     FM282200 32012KT P6SM OVC025
     FM290300 27005KT P6SM BKN250=



000
FTUS41 KCLE 281413 AAB
TAFCLE
TAF AMD
KCLE 281413Z 2814/2918 33012KT P6SM VCSH SCT008 OVC012
     FM281600 33015G25KT P6SM VCSH OVC015
     FM282200 32012G18KT P6SM OVC025
     FM290300 30006KT P6SM SCT150 SCT250
     FM290600 VRB03KT P6SM FEW250=



000
FTUS41 KCLE 281254 AAA
TAFERI
TAF AMD
KERI 281254Z 2813/2912 04006KT 3SM -RA BR BKN005 OVC015
     FM281500 35012KT 3SM -RA BR OVC008
     FM290000 29007KT P6SM VCSH OVC015
     FM290900 24005KT P6SM SCT250=



000
FTUS41 KCLE 281128 CCA
TAFERI
TAF COR
KERI 281128Z 2812/2912 04006KT 3SM -RA BR OVC025
      TEMPO 2812/2814 OVC008
     FM281400 35012KT 2SM -RA BR OVC008
     FM290000 29007KT P6SM VCSH OVC015
     FM290900 24005KT P6SM SCT250=



000
FTUS41 KCLE 281126
TAFTOL
TAF
KTOL 281126Z 2812/2912 32012G20KT P6SM SCT030 BKN050
     FM281400 32012G18KT P6SM SCT120
     FM282000 30008KT P6SM SKC
     FM290000 VRB03KT P6SM FEW250=



000
FTUS41 KCLE 281126
TAFCLE
TAF
KCLE 281126Z 2812/2918 32012KT 4SM -RA BR OVC008
      TEMPO 2812/2814 2SM -RA BR OVC004
     FM281600 32018G28KT P6SM VCSH OVC015
     FM282200 32012G18KT P6SM OVC025
     FM290300 30006KT P6SM SCT150 SCT250
     FM290600 VRB03KT P6SM FEW250=



000
FTUS41 KCLE 281126
TAFMFD
TAF
KMFD 281126Z 2812/2912 30012G20KT 3SM -RA BR OVC004
     FM281500 32015G25KT P6SM OVC007
     FM281800 31012G20KT P6SM OVC015
     FM282000 31012KT P6SM SCT050
     FM290300 VRB04KT P6SM SKC=



000
FTUS41 KCLE 281126
TAFFDY
TAF
KFDY 281126Z 2812/2912 32012G20KT P6SM SCT030 BKN050
      TEMPO 2812/2814 P6SM BKN030
     FM281500 32012G18KT P6SM SCT120
     FM282000 30008KT P6SM SKC
     FM290200 VRB05KT P6SM SCT250=



000
FTUS41 KCLE 281126
TAFCAK
TAF
KCAK 281126Z 2812/2912 24012KT 3SM -RA BR OVC003
     FM281600 30014G22KT 6SM BR VCSH OVC010
     FM282200 32012KT P6SM OVC025
     FM290300 27005KT P6SM BKN250=



000
FTUS41 KCLE 281126
TAFERI
TAF
KERI 281126Z 2812/2912 04006KT 3SM -RA BR OVC025
     FM281400 35012KT 2SM -RA BR OVC008
     FM290000 29007KT P6SM VCSH OVC015
     FM290900 24005KT P6SM SCT250=



000
FTUS41 KCLE 281126
TAFYNG
TAF
KYNG 281126Z 2812/2912 27006KT 4SM -RA BR OVC006
      TEMPO 2812/2814 3SM -RA BR OVC004
     FM281500 30011G16KT 5SM -RA BR OVC010
     FM282200 32012KT P6SM VCSH OVC012
     FM290000 28005KT P6SM OVC015
     FM290300 26004KT P6SM SCT100 BKN250=



000
FTUS41 KCLE 280536
TAFFDY
TAF
KFDY 280536Z 2806/2906 33015G25KT 6SM -RA BR OVC012
     FM280800 32015G25KT 5SM BR VCSH OVC008
     FM281200 32012G20KT P6SM BKN015 OVC045
     FM281500 32012G18KT P6SM SCT025 BKN045
     FM282000 30008KT P6SM SCT150
     FM290200 VRB05KT P6SM SKC=



000
FTUS41 KCLE 280536
TAFTOL
TAF
KTOL 280536Z 2806/2906 33014G24KT 6SM BR VCSH OVC012
     FM280900 32014G24KT 6SM BR OVC008
     FM281200 32012G20KT P6SM BKN015 OVC045
     FM281500 32012G18KT P6SM SCT025 BKN045
     FM282000 30008KT P6SM SCT150
     FM290000 VRB03KT P6SM SKC=



000
FTUS41 KCLE 280536
TAFMFD
TAF
KMFD 280536Z 2806/2906 30014G22KT 2SM -RA BR OVC003
      TEMPO 2806/2810 1SM -RA BR
     FM281200 30014G22KT 5SM BR VCSH OVC006
     FM281500 31012G20KT P6SM OVC015
     FM282200 31012KT P6SM BKN050
     FM290000 VRB04KT P6SM SKC=



000
FTUS41 KCLE 280536
TAFCLE
TAF
KCLE 280536Z 2806/2912 VRB04KT P6SM OVC012
      TEMPO 2806/2808 3SM -RA BR OVC008
     FM280800 32012KT 4SM -RA BR OVC008
     FM281600 32018G28KT P6SM VCSH OVC015
     FM282200 32012G18KT P6SM OVC025
     FM290300 30006KT P6SM SCT150
     FM290600 VRB03KT P6SM SCT250=



000
FTUS41 KCLE 280536
TAFYNG
TAF
KYNG 280536Z 2806/2906 18010KT P6SM OVC015
      TEMPO 2806/2808 4SM -SHRA BR OVC008
     FM280800 18006KT 4SM -RA BR OVC006
     FM281500 30011G16KT 5SM -RA BR OVC010
     FM282200 32012KT P6SM VCSH OVC012
     FM290000 28005KT P6SM OVC015=



000
FTUS41 KCLE 280536
TAFCAK
TAF
KCAK 280536Z 2806/2906 19012KT 3SM -RA BR OVC006
      TEMPO 2806/2808 2SM -RA BR OVC003
     FM280800 24012KT 2SM -RA BR OVC003
     FM281600 30014G22KT 6SM BR VCSH OVC010
     FM282000 32012KT P6SM OVC025
     FM290300 27005KT P6SM BKN050=



000
FTUS41 KCLE 280536
TAFERI
TAF
KERI 280536Z 2806/2906 14012G22KT P6SM VCSH BKN025 OVC045
     FM280700 12012KT 5SM -RA BR OVC012
     FM281000 04006KT 3SM -RA BR OVC006
     FM281400 35012KT 2SM -RA BR OVC008=



000
FTUS41 KCLE 280350 AAB
TAFCAK
TAF AMD
KCAK 280350Z 2804/2824 19012KT 3SM -RA BR OVC006
      TEMPO 2804/2808 2SM -RA BR OVC003
     FM280800 24012KT 2SM -RA BR OVC003
     FM281500 30014G22KT 6SM -RA BR OVC010
     FM282000 32012KT P6SM OVC025=



000
FTUS41 KCLE 280254 AAC
TAFMFD
TAF AMD
KMFD 280254Z 2803/2824 30008KT 3SM -RA BR OVC004
      TEMPO 2803/2806 1SM -RA BR OVC003
     FM280600 30014G22KT 2SM -RA BR OVC003
      TEMPO 2806/2810 1SM -RA BR
     FM281200 30014G22KT 5SM BR OVC006
     FM281500 31012G20KT P6SM OVC015
     FM282200 31012KT P6SM BKN050=



000
FTUS41 KCLE 280246 CCB
TAFFDY
TAF COR
KFDY 280246Z 2803/2824 32016G28KT 6SM RA BR SCT012 OVC025
      TEMPO 2803/2806 3SM RA BR OVC012
     FM280600 33015G25KT 5SM -RA BR OVC012
     FM280900 32015G25KT 6SM BR OVC008
     FM281200 32012G20KT P6SM BKN015 OVC045
     FM281500 32012G18KT P6SM SCT025 BKN045
     FM282000 30008KT P6SM SCT250=



000
FTUS41 KCLE 280246 CCB
TAFFDY
TAF COR
KFDY 280246Z 2803/2824 32016G28KT 6SM RA BR SCT012 OVC025
      TEMPO 2803/2806 3SM RA BR OVC012
     FM280600 33015G25KT 5SM -RA BR OVC012
     FM280900 32015G25KT 6SM BR OVC008
     FM281200 32012G20KT P6SM BKN015 OVC045
     FM281500 32012G18KT P6SM SCT025 BKN045
     FM282000 30008KT P6SM SCT250=



000
FTUS41 KCLE 280245 AAA
TAFFDY
TAF AMD
KFDY 280245Z 2803/2824 34020G32KT 6SM RA BR SCT012 OVC025
      TEMPO 2803/2806 3SM RA BR OVC012
     FM280600 33018G26KT 5SM -RA BR OVC012
     FM280900 32015G25KT 6SM BR OVC008
     FM281200 32012G20KT P6SM BKN015 OVC045
     FM281500 32012G18KT P6SM SCT025 BKN045
     FM282000 30008KT P6SM SCT250=



000
FTUS41 KCLE 280242 AAA
TAFERI
TAF AMD
KERI 280242Z 2803/2824 14012KT P6SM VCSH SCT025 OVC035
      TEMPO 2803/2805 3SM TSRA BR OVC025CB
     FM280500 14012G22KT P6SM VCSH BKN025 OVC045
     FM280700 12012KT 5SM -RA BR OVC012
     FM281000 04006KT 3SM -RA BR OVC006
     FM281400 35012KT 2SM -RA BR OVC008=



000
FTUS41 KCLE 280241 AAB
TAFMFD
TAF AMD
KMFD 280241Z 2803/2824 30008KT 3SM -RA BR OVC004
     FM280600 30014G22KT 2SM -RA BR OVC003
     FM281200 30014G22KT 5SM BR OVC006
     FM281500 31012G20KT P6SM OVC015
     FM282200 31012KT P6SM BKN050=



000
FTUS41 KCLE 280204 AAA
TAFCAK
TAF AMD
KCAK 280204Z 2802/2824 19012KT P6SM -RA OVC015
      TEMPO 2803/2806 4SM -SHRA BR OVC008
     FM280600 24012KT 5SM -RA BR OVC008
     FM281500 30014G22KT 6SM -RA BR OVC010
     FM282000 32012KT P6SM OVC025=



000
FTUS41 KCLE 280203 AAA
TAFMFD
TAF AMD
KMFD 280203Z 2802/2824 30008KT 6SM BR VCSH OVC012
      TEMPO 2802/2804 5SM -RA BR OVC006
     FM280400 30012G22KT 4SM -RA BR OVC012
      TEMPO 2804/2806 2SM -RA BR OVC008
     FM280600 30014G22KT 5SM -RA BR OVC006
     FM281200 30014G22KT P6SM OVC012
     FM281500 31012G20KT P6SM OVC025
     FM282200 31012KT P6SM BKN050=



000
FTUS41 KCLE 280201 AAA
TAFTOL
TAF AMD
KTOL 280201Z 2802/2824 34015G25KT P6SM -RA OVC025
      TEMPO 2802/2804 4SM -RA BR OVC012
     FM280600 33014G24KT 5SM -RA BR OVC012
     FM280900 32014G24KT 6SM BR OVC008
     FM281200 32012G20KT P6SM BKN015 OVC045
     FM281500 32012G18KT P6SM SCT025 BKN045
     FM282000 30008KT P6SM SCT250=



000
FTUS41 KCLE 280159 AAA
TAFCLE
TAF AMD
KCLE 280159Z 2802/2906 VRB03KT P6SM -RA OVC012
     FM280400 32004KT P6SM -RA OVC012
      TEMPO 2804/2805 4SM -RA BR OVC008
     FM280500 32012G20KT 6SM -RA OVC008
      TEMPO 2805/2808 3SM -RA BR
     FM280800 32015G25KT 4SM -RA BR OVC008
     FM281600 32018G28KT P6SM OVC015
     FM282200 32012G18KT P6SM OVC025
     FM290300 30006KT P6SM BKN250=



000
FTUS41 KCLE 272339 CCA
TAFFDY
TAF COR
KFDY 272339Z 2800/2824 34020G32KT P6SM -RA SCT012 OVC035
      TEMPO 2800/2804 3SM RA BR OVC012
     FM280400 33018G26KT 5SM -RA BR OVC012
     FM280900 32015G25KT 6SM BR OVC008
     FM281200 32012G20KT P6SM BKN015 OVC045
     FM281500 32012G18KT P6SM SCT025 BKN045
     FM282000 30008KT P6SM SCT250=



000
FTUS41 KCLE 272336
TAFCLE
TAF
KCLE 272336Z 2800/2906 17008KT P6SM -RA OVC025
     FM280200 22008KT 6SM -RA BR OVC025
     FM280400 32012G18KT P6SM -RA OVC025
      TEMPO 2804/2805 4SM -RA BR OVC015
     FM280500 32015G25KT 6SM -RA OVC015
      TEMPO 2805/2808 3SM RA BR OVC008
     FM280800 32015G25KT 4SM -RA BR OVC008
     FM281600 32018G28KT P6SM OVC015
     FM282200 32012G18KT P6SM OVC025
     FM290300 30006KT P6SM BKN250=



000
FTUS41 KCLE 272336
TAFMFD
TAF
KMFD 272336Z 2800/2824 18008KT P6SM VCSH OVC012
      TEMPO 2800/2802 5SM -RA BR OVC008
     FM280200 30018G28KT 4SM -RA BR OVC012
      TEMPO 2802/2806 2SM -RA BR OVC008
     FM280600 30014G22KT 5SM -RA BR OVC006
     FM281200 30014G22KT P6SM OVC012
     FM281500 31012G20KT P6SM OVC025
     FM282200 31012KT P6SM BKN050=



000
FTUS41 KCLE 272336
TAFYNG
TAF
KYNG 272336Z 2800/2824 16006KT P6SM OVC025
     FM280400 18010KT P6SM OVC015
      TEMPO 2804/2808 4SM -SHRA BR OVC008
     FM280800 18006KT 4SM -RA BR OVC006
     FM281500 30011G16KT 5SM -RA BR OVC010
     FM282200 32012KT P6SM VCSH OVC012=



000
FTUS41 KCLE 272336
TAFTOL
TAF
KTOL 272336Z 2800/2824 34020G32KT 2SM +RA BR SCT025 OVC045
      TEMPO 2800/2804 1SM RA BR OVC025
     FM280600 33018G26KT 5SM -RA BR OVC012
     FM280900 32015G25KT 6SM BR OVC008
     FM281200 32012G20KT P6SM BKN015 OVC045
     FM281500 32012G18KT P6SM SCT025 BKN045
     FM282000 30008KT P6SM SCT250=



000
FTUS41 KCLE 272336
TAFERI
TAF
KERI 272336Z 2800/2824 14016G28KT P6SM VCSH SCT025 OVC080
      TEMPO 2800/2804 3SM TSRA BR OVC025CB
     FM280400 14012G22KT P6SM VCSH BKN025 OVC045
     FM280600 12012KT 5SM -RA BR OVC012
     FM281000 04006KT 3SM -RA BR OVC006
     FM281400 35012KT 2SM -RA BR OVC008=



000
FTUS41 KCLE 272336
TAFCAK
TAF
KCAK 272336Z 2800/2824 22012KT P6SM OVC025
     FM280300 22012KT P6SM OVC015
      TEMPO 2803/2806 4SM -SHRA BR OVC008
     FM280600 25012KT 5SM -RA BR OVC008
     FM281500 30014G22KT 6SM -RA BR OVC010
     FM282000 32012KT P6SM OVC025=



000
FTUS41 KCLE 272336
TAFFDY
TAF
KFDY 272336Z 2800/2824 34020G32KT 4SM -RA BR SCT012 OVC035
      TEMPO 2800/2804 2SM RA BR OVC012
     FM280400 33018G26KT 5SM -RA BR OVC012
     FM280900 32015G25KT 6SM BR OVC008
     FM281200 32012G20KT P6SM BKN015 OVC045
     FM281500 32012G18KT P6SM SCT025 BKN045
     FM282000 30008KT P6SM SCT250=



000
FTUS41 KCLE 272336
TAFTOL
TAF
KTOL 272336Z 2800/2824 34020G32KT 2SM +RA BR SCT025 OVC045
      TEMPO 2800/2804 1SM RA BR OVC025
     FM280600 33018G26KT 5SM -RA BR OVC012
     FM280900 32015G25KT 6SM BR OVC008
     FM281200 32012G20KT P6SM BKN015 OVC045
     FM281500 32012G18KT P6SM SCT025 BKN045
     FM282000 30008KT P6SM SCT250=



000
FTUS41 KCLE 272336
TAFCLE
TAF
KCLE 272336Z 2800/2906 17008KT P6SM -RA OVC025
     FM280200 22008KT 6SM -RA BR OVC025
     FM280400 32012G18KT P6SM -RA OVC025
      TEMPO 2804/2805 4SM -RA BR OVC015
     FM280500 32015G25KT 6SM -RA OVC015
      TEMPO 2805/2808 3SM RA BR OVC008
     FM280800 32015G25KT 4SM -RA BR OVC008
     FM281600 32018G28KT P6SM OVC015
     FM282200 32012G18KT P6SM OVC025
     FM290300 30006KT P6SM BKN250=



000
FTUS41 KCLE 272336
TAFCAK
TAF
KCAK 272336Z 2800/2824 22012KT P6SM OVC025
     FM280300 22012KT P6SM OVC015
      TEMPO 2803/2806 4SM -SHRA BR OVC008
     FM280600 25012KT 5SM -RA BR OVC008
     FM281500 30014G22KT 6SM -RA BR OVC010
     FM282000 32012KT P6SM OVC025=



000
FTUS41 KCLE 272336
TAFYNG
TAF
KYNG 272336Z 2800/2824 16006KT P6SM OVC025
     FM280400 18010KT P6SM OVC015
      TEMPO 2804/2808 4SM -SHRA BR OVC008
     FM280800 18006KT 4SM -RA BR OVC006
     FM281500 30011G16KT 5SM -RA BR OVC010
     FM282200 32012KT P6SM VCSH OVC012=



000
FTUS41 KCLE 272336
TAFMFD
TAF
KMFD 272336Z 2800/2824 18008KT P6SM VCSH OVC012
      TEMPO 2800/2802 5SM -RA BR OVC008
     FM280200 30018G28KT 4SM -RA BR OVC012
      TEMPO 2802/2806 2SM -RA BR OVC008
     FM280600 30014G22KT 5SM -RA BR OVC006
     FM281200 30014G22KT P6SM OVC012
     FM281500 31012G20KT P6SM OVC025
     FM282200 31012KT P6SM BKN050=



000
FTUS41 KCLE 272336
TAFERI
TAF
KERI 272336Z 2800/2824 14016G28KT P6SM VCSH SCT025 OVC080
      TEMPO 2800/2804 3SM TSRA BR OVC025CB
     FM280400 14012G22KT P6SM VCSH BKN025 OVC045
     FM280600 12012KT 5SM -RA BR OVC012
     FM281000 04006KT 3SM -RA BR OVC006
     FM281400 35012KT 2SM -RA BR OVC008=



000
FTUS41 KCLE 272224 AAA
TAFMFD
TAF AMD
KMFD 272224Z 2722/2818 19012G20KT P6SM SCT008 OVC012
     FM280000 30012G22KT P6SM VCSH OVC012
     FM280900 31012G20KT 4SM BR OVC003
     FM281700 31012G20KT P6SM OVC015=



000
FTUS41 KCLE 272224 AAA
TAFMFD
TAF AMD
KMFD 272224Z 2722/2818 19012G20KT P6SM SCT008 OVC012
     FM280000 30012G22KT P6SM VCSH OVC012
     FM280900 31012G20KT 4SM BR OVC003
     FM281700 31012G20KT P6SM OVC015=



000
FTUS41 KCLE 272215 AAA
TAFYNG
TAF AMD
KYNG 272215Z 2722/2818 14010KT P6SM VCSH SCT008 OVC020
     FM272300 18012KT P6SM SCT005 OVC012
     FM280600 18012KT 3SM -SHRA BR OVC005
     FM281400 30012KT 4SM BR VCSH BKN006 OVC012=



000
FTUS41 KCLE 272215 AAA
TAFYNG
TAF AMD
KYNG 272215Z 2722/2818 14010KT P6SM VCSH SCT008 OVC020
     FM272300 18012KT P6SM SCT005 OVC012
     FM280600 18012KT 3SM -SHRA BR OVC005
     FM281400 30012KT 4SM BR VCSH BKN006 OVC012=



000
FTUS41 KCLE 272214 AAB
TAFCAK
TAF AMD
KCAK 272214Z 2722/2818 22012KT P6SM SCT005 OVC025
     FM280300 24012G20KT 3SM -SHRA BR OVC003
     FM281200 30012KT 4SM BR VCSH BKN006 OVC012=



000
FTUS41 KCLE 272213 AAC
TAFCLE
TAF AMD
KCLE 272213Z 2722/2824 20012KT P6SM SCT020 OVC030
      TEMPO 2722/2724 BKN025
     FM280000 17012KT P6SM VCSH SCT008 OVC020
     FM280600 35005KT 5SM -SHRA BR OVC012
     FM281000 33012G20KT 2SM SHRA BR OVC008
     FM281200 33018G28KT 2SM SHRA BR OVC003=



000
FTUS41 KCLE 272207 AAB
TAFFDY
TAF AMD
KFDY 272207Z 2722/2818 33028G40KT 3SM -SHRA BR OVC008
     FM280200 33018G30KT 5SM -SHRA BR OVC012
     FM281100 30012KT P6SM BKN006 OVC015
     FM281400 32012G20KT P6SM OVC015=



000
FTUS41 KCLE 272158 AAA
TAFTOL
TAF AMD
KTOL 272158Z 2722/2818 35020G35KT 2SM +SHRA BR SCT008 OVC035
      TEMPO 2722/2802 1SM +SHRA BR OVC012
     FM280200 34018G32KT 4SM SHRA BR OVC025
     FM280800 30012KT 5SM BR BKN006 OVC012
     FM281400 33012G20KT P6SM OVC015=



000
FTUS41 KCLE 272018 AAA
TAFCAK
TAF AMD
KCAK 272018Z 2720/2818 19015G25KT P6SM SCT025 BKN035
     FM272300 21012KT P6SM SCT005 OVC012
     FM280300 24012G20KT 3SM -SHRA BR OVC003
     FM281200 30012KT 4SM BR VCSH BKN006 OVC012=



000
FTUS41 KCLE 272016 AAA
TAFFDY
TAF AMD
KFDY 272016Z 2720/2818 33015G25KT 3SM -SHRA BR OVC005
     FM281100 30012KT P6SM BKN006 OVC015
     FM281400 32012G20KT P6SM OVC015=



000
FTUS41 KCLE 272015 AAB
TAFCLE
TAF AMD
KCLE 272015Z 2720/2824 21012G20KT P6SM SCT015 BKN035
     FM272200 05015G25KT P6SM SCT015 OVC025
      TEMPO 2722/2724 2SM SHRA BR OVC008
     FM280000 01015G25KT P6SM VCSH SCT008 OVC015
     FM281100 36012KT 5SM -SHRA BR OVC003=



000
FTUS41 KCLE 271909 AAA
TAFERI
TAF AMD
KERI 271909Z 2719/2818 13015G30KT P6SM SCT015 BKN045
      TEMPO 2719/2723 1SM TSRA BR BKN008CB OVC015
     FM272300 10012G22KT 5SM -SHRA BR SCT015 OVC025
     FM280600 14008KT 4SM -SHRA BR OVC015=



000
FTUS41 KCLE 271909 AAA
TAFERI
TAF AMD
KERI 271909Z 2719/2818 13015G30KT P6SM SCT015 BKN045
      TEMPO 2719/2723 1SM TSRA BR BKN008CB OVC015
     FM272300 10012G22KT 5SM -SHRA BR SCT015 OVC025
     FM280600 14008KT 4SM -SHRA BR OVC015=



000
FTUS41 KCLE 271841 AAA
TAFCLE
TAF AMD
KCLE 271841Z 2719/2824 04008KT P6SM SCT015 BKN035
     FM272000 05015G25KT P6SM SCT015 OVC025
      TEMPO 2720/2723 2SM SHRA BR OVC008
     FM272300 01015G25KT P6SM VCSH SCT008 OVC015
     FM281100 36012KT 5SM -SHRA BR OVC003=



000
FTUS41 KCLE 271741
TAFCLE
TAF
KCLE 271741Z 2718/2824 04008KT 6SM -SHRA BR SCT008 OVC015
      TEMPO 2718/2719 1SM TSRA BR BKN004 OVC008CB
     FM272000 05015G25KT P6SM SCT015 OVC025
      TEMPO 2720/2723 2SM SHRA BR OVC008
     FM272300 01015G25KT P6SM VCSH SCT008 OVC015
     FM281100 36012KT 5SM -SHRA BR OVC003=



000
FTUS41 KCLE 271741
TAFTOL
TAF
KTOL 271741Z 2718/2818 02020G38KT 4SM -SHRA BR SCT008 OVC025
      TEMPO 2718/2722 2SM -SHRA BR OVC008
     FM272200 35015G25KT 4SM -SHRA BR SCT008 OVC025
     FM280800 30012KT 5SM BR BKN006 OVC012
     FM281400 33012G20KT P6SM OVC015=



000
FTUS41 KCLE 271741
TAFMFD
TAF
KMFD 271741Z 2718/2818 21012G20KT P6SM VCSH SCT008 OVC025
      TEMPO 2719/2721 3SM -SHRA BR OVC008
     FM272200 21012G20KT P6SM SCT006 OVC012
     FM280200 22010KT 3SM -SHRA BR OVC003
     FM280900 31012G20KT 4SM BR OVC003
     FM281700 31012G20KT P6SM OVC015=



000
FTUS41 KCLE 271741
TAFFDY
TAF
KFDY 271741Z 2718/2818 02012G20KT P6SM VCSH BKN006 OVC015
      TEMPO 2718/2722 3SM -SHRA BR OVC006
     FM272200 33015G25KT 4SM -SHRA BR OVC005
     FM281100 30012KT P6SM BKN006 OVC015
     FM281400 32012G20KT P6SM OVC015=



000
FTUS41 KCLE 271741
TAFCAK
TAF
KCAK 271741Z 2718/2818 19015G25KT 5SM BR VCTS SCT005 OVC015CB
      TEMPO 2718/2720 2SM -TSRA BR OVC005CB
     FM272200 21012KT P6SM SCT005 OVC012
     FM280300 24012G20KT 3SM -SHRA BR OVC003
     FM281200 30012KT 4SM BR VCSH BKN006 OVC012=



000
FTUS41 KCLE 271741
TAFERI
TAF
KERI 271741Z 2718/2818 06012KT 4SM -SHRA BR FEW008 OVC018
      TEMPO 2719/2723 1SM TSRA BR BKN008CB OVC015
     FM272300 10012G22KT 5SM -SHRA BR SCT015 OVC025
     FM280600 14008KT 4SM -SHRA BR OVC015=



000
FTUS41 KCLE 271741
TAFYNG
TAF
KYNG 271741Z 2718/2818 15015G25KT 5SM BR VCTS SCT005 OVC015CB
      TEMPO 2718/2722 1SM -TSRA BR OVC005CB
     FM272300 13012KT P6SM SCT005 OVC012
     FM280600 18012KT 3SM -SHRA BR OVC005
     FM281400 30012KT 4SM BR VCSH BKN006 OVC012=



000
FTUS41 KCLE 271613 AAB
TAFFDY
TAF AMD
KFDY 271613Z 2716/2812 04012KT P6SM VCSH SCT005 OVC025
      TEMPO 2716/2718 2SM -SHRA BR BKN005 OVC012
     FM272000 35018G30KT 4SM -SHRA BR OVC005
     FM280500 33014KT 4SM BR OVC007
     FM281100 32012KT P6SM BKN006 OVC015=



000
FTUS41 KCLE 271612 AAB
TAFCLE
TAF AMD
KCLE 271612Z 2716/2818 13008KT 6SM -SHRA BR SCT008 OVC015
      TEMPO 2716/2720 1SM TSRA BR OVC008CB
     FM272000 14010KT P6SM SCT015 OVC025
      TEMPO 2720/2723 2SM SHRA BR OVC008
     FM272300 18008KT P6SM VCSH SCT008 OVC015
     FM281100 36012KT 5SM -SHRA BR OVC003=



000
FTUS41 KCLE 271529 AAA
TAFERI
TAF AMD
KERI 271529Z 2715/2812 06012KT 4SM -SHRA BR FEW008 OVC018
      TEMPO 2715/2718 2SM -SHRA BR BKN008 OVC015
     FM271800 09012G22KT 5SM -SHRA BR SCT015 OVC025
     FM280600 14008KT 4SM -SHRA BR OVC015=



000
FTUS41 KCLE 271529 AAA
TAFERI
TAF AMD
KERI 271529Z 2715/2812 06012KT 4SM -SHRA BR FEW008 OVC018
      TEMPO 2715/2718 2SM -SHRA BR BKN008 OVC015
     FM271800 09012G22KT 5SM -SHRA BR SCT015 OVC025
     FM280600 14008KT 4SM -SHRA BR OVC015=



000
FTUS41 KCLE 271501 AAA
TAFYNG
TAF AMD
KYNG 271501Z 2715/2812 13012G20KT 6SM -SHRA BR BKN006 OVC012
      TEMPO 2715/2717 2SM -SHRA BR OVC006
     FM271900 15015G25KT 5SM BR VCTS SCT005 OVC015CB
      TEMPO 2719/2722 2SM -TSRA BR OVC005CB
     FM272300 24012KT P6SM SCT005 OVC012
     FM280600 30012KT 3SM -SHRA BR OVC005=



000
FTUS41 KCLE 271456 AAA
TAFCAK
TAF AMD
KCAK 271456Z 2715/2812 17012KT 4SM -SHRA BR BKN005 OVC012
      TEMPO 2715/2718 2SM -SHRA BR OVC005
     FM271800 19015G25KT 5SM BR VCTS SCT005 OVC015CB
      TEMPO 2718/2720 2SM -TSRA BR OVC005CB
     FM272200 24012KT P6SM SCT005 OVC012
     FM280300 31012G20KT 3SM -SHRA BR OVC003=



000
FTUS41 KCLE 271348 AAA
TAFMFD
TAF AMD
KMFD 271348Z 2714/2812 20012KT P6SM SCT008 OVC015
      TEMPO 2714/2718 BKN008
     FM271800 21012G20KT P6SM VCTS SCT008 OVC015CB
      TEMPO 2719/2721 2SM -TSRA BR OVC008CB
     FM272200 21012G20KT P6SM SCT006 OVC012
     FM280200 22010KT 3SM -SHRA BR OVC003
     FM280800 31012G20KT 3SM -SHRA BR OVC003=



000
FTUS41 KCLE 271348 AAA
TAFMFD
TAF AMD
KMFD 271348Z 2714/2812 20012KT P6SM SCT008 OVC015
      TEMPO 2714/2718 BKN008
     FM271800 21012G20KT P6SM VCTS SCT008 OVC015CB
      TEMPO 2719/2721 2SM -TSRA BR OVC008CB
     FM272200 21012G20KT P6SM SCT006 OVC012
     FM280200 22010KT 3SM -SHRA BR OVC003
     FM280800 31012G20KT 3SM -SHRA BR OVC003=



000
FTUS41 KCLE 271339 AAB
TAFCLE
TAF AMD
KCLE 271339Z 2714/2818 12008KT 6SM -SHRA BR SCT008 OVC015
      TEMPO 2714/2718 3SM -SHRA BR OVC008
     FM271800 14010KT P6SM SCT015 OVC025
      TEMPO 2719/2723 2SM SHRA BR OVC008
     FM272300 18008KT P6SM VCSH SCT008 OVC015
     FM281100 36012KT 5SM -SHRA BR OVC003=



000
FTUS41 KCLE 271332 AAA
TAFFDY
TAF AMD
KFDY 271332Z 2714/2812 04012KT 5SM BR VCSH BKN005 OVC012
      TEMPO 2714/2718 2SM -SHRA BR OVC005
     FM272000 35018G30KT 4SM -SHRA BR OVC005
     FM280500 33014KT 4SM BR OVC007
     FM281100 32012KT P6SM BKN006 OVC015=



000
FTUS41 KCLE 271328 AAA
TAFTOL
TAF AMD
KTOL 271328Z 2713/2812 03015G25KT 5SM -SHRA BR OVC006
      TEMPO 2713/2717 2SM SHRA BR
     FM272100 35020G30KT 4SM -SHRA BR OVC006
     FM280800 32012KT 4SM BR BKN006 OVC015=



000
FTUS41 KCLE 271328 AAA
TAFTOL
TAF AMD
KTOL 271328Z 2713/2812 03015G25KT 5SM -SHRA BR OVC006
      TEMPO 2713/2717 2SM SHRA BR
     FM272100 35020G30KT 4SM -SHRA BR OVC006
     FM280800 32012KT 4SM BR BKN006 OVC015=



000
FTUS41 KCLE 271133
TAFERI
TAF
KERI 271133Z 2712/2812 07010KT 6SM -SHRA BR OVC100
      TEMPO 2712/2714 5SM -RA BR OVC035
     FM271400 09018G28KT 4SM -SHRA BR SCT004 OVC012
      TEMPO 2714/2718 2SM SHRA BR OVC004
     FM271800 09020G32KT 4SM SHRA BR VCTS SCT004 OVC025CB
     FM280300 05012KT 3SM -SHRA BR OVC007=



000
FTUS41 KCLE 271133
TAFCLE
TAF
KCLE 271133Z 2712/2818 07012G20KT 6SM -RA BR SCT008 OVC015
      TEMPO 2712/2716 3SM RA BR OVC008
     FM271600 08016G26KT 3SM -SHRA BR OVC004
     FM272200 03014G22KT 4SM -SHRA BR VCTS SCT004 OVC012CB
     FM280600 34014G22KT 4SM -SHRA BR OVC007
     FM281500 31012KT 6SM BR SCT007 OVC015=



000
FTUS41 KCLE 271133
TAFTOL
TAF
KTOL 271133Z 2712/2812 02012G20KT 6SM -RA BR BKN015
      TEMPO 2712/2713 3SM RA BR OVC007
     FM272100 35025G35KT 6SM -SHRA SCT007 OVC015
     FM280900 31012KT 6SM -SHRA BR OVC015=



000
FTUS41 KCLE 271133
TAFCAK
TAF
KCAK 271133Z 2712/2812 08014G20KT 3SM -RA BR OVC006
     FM272200 18008KT 4SM -SHRA BR VCTS SCT006 OVC012CB
     FM280300 18008KT 3SM -SHRA BR OVC006=



000
FTUS41 KCLE 271133
TAFYNG
TAF
KYNG 271133Z 2712/2812 08012G18KT 3SM -RA BR OVC008
     FM271600 10015G22KT 4SM -SHRA BR VCTS SCT008 OVC012CB
     FM272200 12012KT 4SM -SHRA BR VCTS SCT008 OVC012CB
     FM280300 19012KT 3SM -SHRA BR OVC007=



000
FTUS41 KCLE 271133
TAFFDY
TAF
KFDY 271133Z 2712/2812 02014G22KT 3SM -RA BR VCTS BKN007 OVC012CB
     FM271600 33020G28KT 4SM -SHRA BR SCT007 OVC012
     FM280900 32014KT 6SM -SHRA BR SCT007 OVC015=



000
FTUS41 KCLE 271133
TAFMFD
TAF
KMFD 271133Z 2712/2812 14012KT 3SM SHRA BR OVC007
     FM271600 06012KT 5SM -SHRA BR VCTS SCT007 OVC010CB
     FM272000 02012KT 3SM -SHRA BR VCTS SCT007 OVC010CB
     FM280300 21012KT 2SM BR VCSH OVC007=



000
FTUS41 KCLE 270540
TAFTOL
TAF
KTOL 270540Z 2706/2806 04010KT P6SM -RA SCT050 OVC100
      TEMPO 2706/2708 3SM RA BR OVC035
     FM270800 03014G20KT 3SM -RA BR OVC025
      TEMPO 2708/2712 2SM -RA BR OVC008
     FM271200 02018G28KT 3SM SHRA BR OVC012
     FM271600 35022G32KT 5SM -SHRA BR OVC012=



000
FTUS41 KCLE 270540
TAFCAK
TAF
KCAK 270540Z 2706/2806 08012KT 6SM -RA BR SCT035 OVC100
      TEMPO 2706/2708 4SM -RA BR OVC025
     FM270800 07012KT 5SM SHRA BR OVC015
      TEMPO 2708/2712 3SM SHRA BR OVC008
     FM271200 08014G20KT 4SM SHRA BR OVC008
     FM271600 10012G18KT 4SM -SHRA BR VCTS OVC012CB
     FM272200 18008KT 4SM -SHRA BR VCTS OVC012CB
     FM280300 18008KT 3SM -SHRA BR OVC007=



000
FTUS41 KCLE 270540
TAFCLE
TAF
KCLE 270540Z 2706/2812 06010KT 6SM -RA BR SCT025 OVC100
      TEMPO 2706/2708 5SM -RA BR OVC025
     FM270800 07012KT 5SM SHRA BR OVC025
      TEMPO 2708/2712 3SM SHRA BR OVC012
     FM271200 07014G20KT 4SM SHRA BR OVC012
      TEMPO 2712/2716 2SM SHRA BR OVC008
     FM271600 08016G26KT 3SM -SHRA BR VCTS OVC012CB
     FM272200 03014G22KT 4SM -SHRA BR VCTS OVC012CB
     FM280600 34014G22KT 4SM -SHRA BR OVC007=



000
FTUS41 KCLE 270540
TAFYNG
TAF
KYNG 270540Z 2706/2806 06010KT 6SM -RA BR SCT035 OVC110
      TEMPO 2706/2708 4SM -RA BR OVC025
     FM270800 09010KT 5SM SHRA BR OVC015
      TEMPO 2708/2712 3SM SHRA BR OVC008
     FM271200 08012G18KT 3SM SHRA BR OVC008
     FM271600 10015G22KT 4SM -SHRA BR VCTS OVC012CB
     FM272200 12012KT 4SM -SHRA BR VCTS OVC012CB
     FM280300 19012KT 3SM -SHRA BR OVC007=



000
FTUS41 KCLE 270540
TAFFDY
TAF
KFDY 270540Z 2706/2806 07012G20KT 3SM -RA BR OVC025
      TEMPO 2706/2708 2SM RA BR OVC015
     FM270800 03012G20KT 3SM -SHRA BR OVC008
     FM271200 02014G22KT 3SM SHRA BR OVC012
     FM271600 33020G28KT 5SM -SHRA BR VCTS OVC012CB=



000
FTUS41 KCLE 270540
TAFMFD
TAF
KMFD 270540Z 2706/2806 05010KT 5SM -RA BR OVC025
     FM270800 10012G17KT 3SM -SHRA BR OVC008
     FM271200 14012G20KT 3SM SHRA BR VCTS OVC006CB
     FM271600 06012KT 5SM -SHRA BR VCTS OVC010CB
     FM272000 02012KT 3SM -SHRA BR VCTS OVC010CB
     FM280300 21012KT 3SM BR OVC008=



000
FTUS41 KCLE 270540
TAFERI
TAF
KERI 270540Z 2706/2806 08012G16KT P6SM -RA SCT035 OVC100
     FM271000 09014G20KT 6SM -SHRA BR OVC035
      TEMPO 2710/2714 4SM -RA BR OVC012
     FM271400 09018G28KT 5SM SHRA BR OVC012
      TEMPO 2714/2718 2SM SHRA BR OVC008
     FM271800 09020G32KT 4SM SHRA BR VCTS OVC025CB
     FM280300 05014KT 3SM -SHRA BR OVC004=



000
FTUS41 KCLE 270314 AAA
TAFMFD
TAF AMD
KMFD 270314Z 2703/2724 04006KT P6SM -RA SCT050 OVC080
     FM270400 04010KT 6SM -RA OVC045
     FM270600 05010KT 5SM -RA BR OVC025
     FM270900 10012G17KT 3SM -SHRA BR OVC008
     FM271200 14012G20KT 3SM SHRA BR VCTS OVC006CB
     FM271600 06012KT 5SM -SHRA BR VCTS OVC010CB
     FM272000 02012KT 3SM -SHRA BR VCTS OVC010CB=



000
FTUS41 KCLE 270228 AAB
TAFFDY
TAF AMD
KFDY 270228Z 2702/2724 05012G20KT 6SM -RA SCT035 OVC045
     FM270500 07012G20KT 6SM -RA BR OVC025
     FM270800 03012G20KT 3SM -SHRA BR OVC008
     FM271200 02014G22KT 3SM SHRA BR OVC012
     FM271600 33020G28KT 5SM -SHRA BR VCTS OVC012CB=



000
FTUS41 KCLE 270228 AAB
TAFFDY
TAF AMD
KFDY 270228Z 2702/2724 05012G20KT 6SM -RA SCT035 OVC045
     FM270500 07012G20KT 6SM -RA BR OVC025
     FM270800 03012G20KT 3SM -SHRA BR OVC008
     FM271200 02014G22KT 3SM SHRA BR OVC012
     FM271600 33020G28KT 5SM -SHRA BR VCTS OVC012CB=



000
FTUS41 KCLE 270213 AAA
TAFERI
TAF AMD
KERI 270213Z 2702/2724 05011KT P6SM OVC250
     FM270600 08012G16KT P6SM -RA SCT035 OVC060
     FM271000 09014G20KT 6SM -SHRA BR OVC035
      TEMPO 2710/2714 4SM -RA BR OVC012
     FM271400 09018G28KT 5SM SHRA BR OVC012
      TEMPO 2714/2718 2SM SHRA BR OVC008
     FM271800 09020G32KT 4SM SHRA BR VCTS OVC025CB=



000
FTUS41 KCLE 270104 AAA
TAFFDY
TAF AMD
KFDY 270104Z 2701/2724 05012KT 6SM -RA SCT035 OVC045
     FM270300 07010KT 6SM -RA BR OVC025
     FM270800 03012KT 3SM -SHRA BR OVC008
     FM271200 02014G20KT 3SM SHRA BR OVC012
     FM271600 33020G28KT 5SM -SHRA BR VCTS OVC012CB=



000
FTUS41 KCLE 270104 AAA
TAFFDY
TAF AMD
KFDY 270104Z 2701/2724 05012KT 6SM -RA SCT035 OVC045
     FM270300 07010KT 6SM -RA BR OVC025
     FM270800 03012KT 3SM -SHRA BR OVC008
     FM271200 02014G20KT 3SM SHRA BR OVC012
     FM271600 33020G28KT 5SM -SHRA BR VCTS OVC012CB=



000
FTUS41 KCLE 262357 CCB
TAFCLE
TAF COR
KCLE 262357Z 2700/2806 05012KT P6SM SCT100 OVC200
     FM270200 05011KT P6SM -RA SCT045 OVC100
     FM270400 06010KT 6SM -RA BR SCT025 OVC045
      TEMPO 2704/2708 4SM -RA BR OVC025
     FM270800 07012KT 5SM SHRA BR OVC025
      TEMPO 2708/2712 3SM SHRA BR OVC012
     FM271200 07014G20KT 4SM SHRA BR OVC012
      TEMPO 2712/2716 2SM SHRA BR OVC008
     FM271600 08016G26KT 3SM -SHRA BR VCTS OVC012CB
     FM272200 03014G22KT 4SM -SHRA BR VCTS OVC012CB=



000
FTUS41 KCLE 262357 CCA
TAFFDY
TAF COR
KFDY 262357Z 2700/2724 05012KT 4SM RA SCT035 OVC060
     FM270300 07010KT 3SM RA BR OVC025
     FM270800 03012KT 3SM -SHRA BR OVC008
     FM271200 02014G20KT 3SM SHRA BR OVC012
     FM271600 33020G28KT 5SM -SHRA BR VCTS OVC012CB=



000
FTUS41 KCLE 262333
TAFTOL
TAF
KTOL 262333Z 2700/2724 08012KT P6SM -RA SCT035 OVC060
     FM270300 06012KT P6SM -RA OVC035
     FM270600 04012KT 5SM -RA BR OVC025
     FM270900 03014G20KT 3SM -RA BR OVC008
     FM271200 02018G28KT 3SM SHRA BR OVC012
     FM271600 35022G32KT 5SM -SHRA BR OVC012=



000
FTUS41 KCLE 262333
TAFYNG
TAF
KYNG 262333Z 2700/2724 03008KT P6SM SCT050 OVC160
     FM270400 06010KT 6SM -RA BR SCT015 OVC035
      TEMPO 2704/2708 4SM -RA BR OVC015
     FM270800 09010KT 5SM SHRA BR OVC015
      TEMPO 2708/2712 3SM SHRA BR OVC008
     FM271200 08012G18KT 3SM SHRA BR OVC008
     FM271600 10015G22KT 4SM -SHRA BR VCTS OVC012CB
     FM272200 12011KT 4SM -SHRA BR VCTS OVC012CB=



000
FTUS41 KCLE 262333
TAFMFD
TAF
KMFD 262333Z 2700/2724 03006KT P6SM -RA SCT050 OVC080
     FM270200 04010KT 6SM -RA OVC045
     FM270400 05010KT 5SM -RA BR OVC025
     FM270800 10012G17KT 3SM -SHRA BR OVC008
     FM271200 14012G20KT 3SM SHRA BR VCTS OVC006CB
     FM271600 06012KT 5SM -SHRA BR VCTS OVC010CB
     FM272000 02012KT 3SM -SHRA BR VCTS OVC010CB=



000
FTUS41 KCLE 262333
TAFFDY
TAF
KFDY 262333Z 2700/2724 05012KT P6SM -RA SCT035 OVC060
     FM270200 07010KT P6SM -RA OVC035
     FM270400 05012KT 5SM -RA BR OVC025
     FM270800 03012KT 3SM -SHRA BR OVC008
     FM271200 02014G20KT 3SM SHRA BR OVC012
     FM271600 33020G28KT 5SM -SHRA BR VCTS OVC012CB=



000
FTUS41 KCLE 262333
TAFCAK
TAF
KCAK 262333Z 2700/2724 05008KT P6SM SCT080 OVC150
     FM270400 08012KT 6SM -RA BR SCT015 OVC035
      TEMPO 2704/2708 4SM -RA BR OVC015
     FM270800 07012KT 5SM SHRA BR OVC015
      TEMPO 2708/2712 3SM SHRA BR OVC008
     FM271200 08014G20KT 4SM SHRA BR OVC008
     FM271600 10012G18KT 4SM -SHRA BR VCTS OVC012CB
     FM272200 18008KT 4SM -SHRA BR VCTS OVC012CB=



000
FTUS41 KCLE 262333
TAFERI
TAF
KERI 262333Z 2700/2724 05014G20KT P6SM OVC250
     FM270600 08012G16KT P6SM -RA SCT035 OVC060
     FM271000 09014G20KT 6SM -SHRA BR OVC035
      TEMPO 2710/2714 4SM -RA BR OVC012
     FM271400 09018G28KT 5SM SHRA BR OVC012
      TEMPO 2714/2718 2SM SHRA BR OVC008
     FM271800 09020G32KT 4SM SHRA BR VCTS OVC025CB=



000
FTUS41 KCLE 262333
TAFCLE
TAF
KCLE 262333Z 2700/2806 03012G18KT P6SM SCT100 OVC200
     FM270200 04011KT P6SM -RA SCT045 OVC100
     FM270400 06010KT 6SM -RA BR SCT025 OVC045
      TEMPO 2704/2708 4SM -RA BR OVC025
     FM270800 07012KT 5SM SHRA BR OVC025
      TEMPO 2708/2712 3SM SHRA BR OVC012
     FM271200 07014G20KT 4SM SHRA BR OVC012
      TEMPO 2712/2716 2SM SHRA BR OVC008
     FM271600 08016G26KT 3SM -SHRA BR VCTS OVC012CB
     FM272200 03014G22KT 4SM -SHRA BR VCTS OVC012CB=



    US Dept of Commerce
    National Oceanic and Atmospheric Administration
    National Weather Service
    1325 East West Highway
    Silver Spring, MD 20910
    Page Author: NWS Internet Services Team
Disclaimer
Information Quality
Credits
Glossary
Privacy Policy
Freedom of Information Act (FOIA)
About Us
Career Opportunities